Time;durP1;ratioP1;P1;durP2;ratioP2;P2;SDS_P1;SDS_P2;PMS_P1;PMS_P2;Temp;Humidity;BMP_temperature;BMP_pressure;BME280_temperature;BME280_humidity;BME280_pressure;Samples;Min_cycle;Max_cycle;Signal;HPM_P1;HPM_P2
2022/03/31 00:02:18;;;;;;;2.25;1.35;;;23.10;74.20;;;;;;4170876;27;20034;-50
2022/03/31 00:04:40;;;;;;;10.07;1.88;;;23.10;74.30;;;;;;4182356;27;20119;-50
2022/03/31 00:07:03;;;;;;;5.90;1.75;;;23.10;74.00;;;;;;4172769;27;20142;-50
2022/03/31 00:09:25;;;;;;;1.73;1.55;;;23.20;74.00;;;;;;4171085;27;20897;-51
2022/03/31 00:11:48;;;;;;;1.75;1.00;;;23.20;74.00;;;;;;4181766;27;20043;-53
2022/03/31 00:14:10;;;;;;;1.90;1.15;;;23.20;74.00;;;;;;4170837;27;20044;-54
2022/03/31 00:16:33;;;;;;;2.63;1.58;;;23.20;74.00;;;;;;4171754;27;20087;-49
2022/03/31 00:18:55;;;;;;;1.65;1.20;;;23.20;74.00;;;;;;4177654;27;21460;-54
2022/03/31 00:21:18;;;;;;;1.42;1.30;;;23.20;73.90;;;;;;4182079;27;20189;-48
2022/03/31 00:23:41;;;;;;;4.33;1.10;;;23.20;73.90;;;;;;4174857;27;20103;-48
2022/03/31 00:26:04;;;;;;;2.25;1.48;;;23.20;74.00;;;;;;4181091;27;20304;-52
2022/03/31 00:28:26;;;;;;;3.17;1.73;;;23.30;73.80;;;;;;4184049;27;20055;-55
2022/03/31 00:30:49;;;;;;;4.05;2.20;;;23.30;73.60;;;;;;4174568;27;20960;-51
2022/03/31 00:33:12;;;;;;;3.72;1.65;;;23.30;74.10;;;;;;4175868;27;20039;-51
2022/03/31 00:35:35;;;;;;;2.42;1.50;;;23.30;74.30;;;;;;4182419;27;20050;-52
2022/03/31 00:37:58;;;;;;;4.03;2.10;;;23.30;74.00;;;;;;4173871;27;20450;-48
2022/03/31 00:40:21;;;;;;;2.80;1.70;;;23.40;73.90;;;;;;4175786;27;20882;-49
2022/03/31 00:42:49;;;;;;;6.17;1.90;;;23.40;73.80;;;;;;4181314;27;20870;-54
2022/03/31 00:45:17;;;;;;;4.30;1.70;;;23.40;73.70;;;;;;4177492;27;20047;-51
2022/03/31 00:47:40;;;;;;;5.88;1.60;;;23.40;73.60;;;;;;4184324;27;20051;-53
2022/03/31 00:50:02;;;;;;;3.28;1.63;;;23.40;73.60;;;;;;4174798;27;20208;-50
2022/03/31 00:52:25;;;;;;;3.03;1.58;;;23.50;73.70;;;;;;4180396;27;21344;-53
2022/03/31 00:54:50;;;;;;;2.55;1.52;;;23.40;73.70;;;;;;4187563;27;20677;-54
2022/03/31 00:57:13;;;;;;;2.33;1.48;;;23.50;73.70;;;;;;4179698;27;20043;-49
2022/03/31 00:59:37;;;;;;;2.40;1.70;;;23.50;73.70;;;;;;4187761;27;21153;-53
2022/03/31 01:02:01;;;;;;;3.10;1.60;;;23.50;73.70;;;;;;4182206;27;20080;-58
2022/03/31 01:04:23;;;;;;;2.50;1.77;;;23.50;73.50;;;;;;4179012;27;20096;-54
2022/03/31 01:06:50;;;;;;;2.75;1.52;;;23.50;73.30;;;;;;4184483;27;20094;-52
2022/03/31 01:09:14;;;;;;;3.08;1.60;;;23.50;73.40;;;;;;4179617;27;20035;-53
2022/03/31 01:11:36;;;;;;;2.00;1.20;;;23.50;73.40;;;;;;4175932;27;20123;-51
2022/03/31 01:13:59;;;;;;;3.03;1.60;;;23.50;73.50;;;;;;4183144;27;20040;-49
2022/03/31 01:16:23;;;;;;;1.95;1.33;;;23.50;73.00;;;;;;4173721;27;20235;-52
2022/03/31 01:18:45;;;;;;;1.70;1.23;;;23.50;73.60;;;;;;4170474;27;20155;-48
2022/03/31 01:21:11;;;;;;;1.45;0.90;;;23.60;73.60;;;;;;4184013;27;20042;-49
2022/03/31 01:23:34;;;;;;;1.95;1.17;;;23.60;73.70;;;;;;4160871;28;20144;-51
2022/03/31 01:25:57;;;;;;;2.20;1.20;;;23.60;73.60;;;;;;4178777;27;22087;-51
2022/03/31 01:28:20;;;;;;;2.60;1.13;;;23.60;73.70;;;;;;4182385;27;20140;-51
2022/03/31 01:30:43;;;;;;;2.30;1.10;;;23.60;73.70;;;;;;4177391;27;20177;-49
2022/03/31 01:33:05;;;;;;;1.52;1.10;;;23.60;73.70;;;;;;4178758;27;21430;-54
2022/03/31 01:35:28;;;;;;;1.90;0.98;;;23.60;73.70;;;;;;4184029;27;20067;-50
2022/03/31 01:37:51;;;;;;;2.50;0.98;;;23.60;73.60;;;;;;4169079;28;20047;-47
2022/03/31 01:40:14;;;;;;;1.58;1.15;;;23.60;73.50;;;;;;4172855;27;20063;-51
2022/03/31 01:42:37;;;;;;;1.52;0.90;;;23.60;73.50;;;;;;4184626;27;20112;-50
2022/03/31 01:44:59;;;;;;;2.17;1.40;;;23.60;73.60;;;;;;4174460;27;20128;-50
2022/03/31 01:47:22;;;;;;;1.48;1.02;;;23.60;73.60;;;;;;4177791;27;20138;-49
2022/03/31 01:49:44;;;;;;;2.30;1.05;;;23.60;73.50;;;;;;4183907;27;20054;-54
2022/03/31 01:52:07;;;;;;;1.63;1.00;;;23.70;73.70;;;;;;4177300;27;20574;-52
2022/03/31 01:54:30;;;;;;;1.67;0.93;;;23.70;73.70;;;;;;4170928;27;20043;-51
2022/03/31 01:56:54;;;;;;;2.13;1.08;;;23.60;73.60;;;;;;4180793;27;20048;-54
2022/03/31 01:59:16;;;;;;;1.52;0.88;;;23.70;73.70;;;;;;4179264;27;20086;-46
2022/03/31 02:01:39;;;;;;;1.27;0.93;;;23.70;73.70;;;;;;4176118;27;20031;-47
2022/03/31 02:04:01;;;;;;;1.58;1.00;;;23.70;73.80;;;;;;4188318;27;20038;-50
2022/03/31 02:06:24;;;;;;;1.13;0.70;;;23.70;73.80;;;;;;4182874;27;20038;-53
2022/03/31 02:08:46;;;;;;;2.00;1.17;;;23.70;73.80;;;;;;4176123;27;20074;-50
2022/03/31 02:11:09;;;;;;;1.58;1.10;;;23.70;73.80;;;;;;4179264;27;20040;-52
2022/03/31 02:13:31;;;;;;;1.02;0.82;;;23.70;73.90;;;;;;4179843;27;20150;-54
2022/03/31 02:15:54;;;;;;;1.38;0.88;;;23.70;73.90;;;;;;4177980;27;20126;-52
2022/03/31 02:18:17;;;;;;;1.70;1.13;;;23.70;74.00;;;;;;4179639;27;20036;-54
2022/03/31 02:20:41;;;;;;;1.40;0.90;;;23.70;74.00;;;;;;4182790;27;20332;-51
2022/03/31 02:23:04;;;;;;;1.45;0.82;;;23.80;74.00;;;;;;4177058;28;20097;-51
2022/03/31 02:25:27;;;;;;;1.25;0.77;;;23.80;73.90;;;;;;4180870;27;20050;-49
2022/03/31 02:27:55;;;;;;;1.53;1.20;;;23.80;73.90;;;;;;4178773;27;20113;-55
2022/03/31 02:30:17;;;;;;;3.47;1.05;;;23.80;73.80;;;;;;4174043;28;20439;-49
2022/03/31 02:32:41;;;;;;;2.03;0.95;;;23.80;73.90;;;;;;4181389;28;20051;-51
2022/03/31 02:35:05;;;;;;;1.05;0.93;;;23.80;73.90;;;;;;4179848;28;20393;-55
2022/03/31 02:37:28;;;;;;;1.58;1.10;;;23.80;73.90;;;;;;4173740;28;20046;-48
2022/03/31 02:39:50;;;;;;;2.55;1.27;;;23.80;73.80;;;;;;4181445;28;20280;-51
2022/03/31 02:42:14;;;;;;;1.60;1.20;;;23.80;73.70;;;;;;4172151;28;20043;-52
2022/03/31 02:44:37;;;;;;;1.63;1.00;;;23.80;73.60;;;;;;4170062;28;20036;-47
2022/03/31 02:46:59;;;;;;;1.92;1.08;;;23.80;73.60;;;;;;4183675;28;20137;-45
2022/03/31 02:49:22;;;;;;;3.22;1.20;;;23.80;73.50;;;;;;4177205;28;20831;-53
2022/03/31 02:51:44;;;;;;;2.90;1.33;;;23.80;73.50;;;;;;4176029;28;20039;-47
2022/03/31 02:56:48;;;;;;;2.80;1.30;;;23.80;73.50;;;;;;4175384;28;20153;-52
2022/03/31 02:59:10;;;;;;;3.05;1.40;;;23.80;74.10;;;;;;4179984;28;20092;-46
2022/03/31 03:01:33;;;;;;;3.35;1.42;;;23.80;73.40;;;;;;4174038;28;20120;-50
2022/03/31 03:03:57;;;;;;;2.50;1.38;;;23.80;73.40;;;;;;4176282;28;20076;-53
2022/03/31 03:06:20;;;;;;;1.90;1.05;;;23.80;73.50;;;;;;4179049;28;20120;-49
2022/03/31 03:08:43;;;;;;;4.03;1.25;;;23.80;73.40;;;;;;4153822;28;20341;-47
2022/03/31 03:11:05;;;;;;;4.57;1.50;;;23.80;73.40;;;;;;4176975;28;20475;-51
2022/03/31 03:13:27;;;;;;;2.60;1.30;;;23.80;73.40;;;;;;4179335;28;20112;-47
2022/03/31 03:15:50;;;;;;;2.22;1.23;;;23.80;73.30;;;;;;4177075;28;20036;-49
2022/03/31 03:18:13;;;;;;;2.80;1.42;;;23.80;73.30;;;;;;4169750;28;21004;-49
2022/03/31 03:20:36;;;;;;;3.42;1.60;;;23.80;73.30;;;;;;4162007;28;20094;-48
2022/03/31 03:22:58;;;;;;;4.68;1.75;;;23.80;73.20;;;;;;4165178;28;20043;-50
2022/03/31 03:25:23;;;;;;;4.57;2.20;;;23.80;73.00;;;;;;4166564;28;20121;-49
2022/03/31 03:27:47;;;;;;;4.35;1.95;;;23.80;72.90;;;;;;4178482;28;20051;-48
2022/03/31 03:30:10;;;;;;;4.93;1.98;;;23.70;72.20;;;;;;4156897;28;20040;-51
2022/03/31 03:32:34;;;;;;;5.68;2.00;;;23.70;72.80;;;;;;4173446;28;20060;-46
2022/03/31 03:34:56;;;;;;;4.80;1.90;;;23.70;73.10;;;;;;4182612;28;20039;-46
2022/03/31 03:37:19;;;;;;;3.50;1.77;;;23.70;73.50;;;;;;4172330;27;20300;-49
2022/03/31 03:39:44;;;;;;;4.63;1.83;;;23.70;73.50;;;;;;4178140;27;20041;-51
2022/03/31 03:42:07;;;;;;;3.72;1.90;;;23.70;73.80;;;;;;4182196;27;20040;-53
2022/03/31 03:44:30;;;;;;;4.90;1.80;;;23.70;74.00;;;;;;4174094;27;20036;-50
2022/03/31 03:46:53;;;;;;;3.63;1.70;;;23.70;74.00;;;;;;4179617;27;22469;-53
2022/03/31 03:49:15;;;;;;;5.95;1.20;;;23.70;73.90;;;;;;4184357;27;20035;-53
2022/03/31 03:51:37;;;;;;;4.70;1.60;;;23.70;73.90;;;;;;4179280;27;20158;-48
2022/03/31 03:54:00;;;;;;;2.65;1.20;;;23.70;73.80;;;;;;4176525;27;21850;-47
2022/03/31 03:56:23;;;;;;;2.45;1.40;;;23.80;73.90;;;;;;4189492;27;20039;-50
2022/03/31 03:58:46;;;;;;;5.00;1.50;;;23.80;74.50;;;;;;4173452;27;20039;-51
2022/03/31 04:01:09;;;;;;;4.03;1.40;;;23.80;73.80;;;;;;4163022;27;20082;-52
2022/03/31 04:03:32;;;;;;;5.43;1.60;;;23.80;73.80;;;;;;4179910;27;20078;-48
2022/03/31 04:05:55;;;;;;;2.78;0.98;;;23.70;73.70;;;;;;4174076;27;20039;-49
2022/03/31 04:08:17;;;;;;;2.35;1.20;;;23.80;73.80;;;;;;4181359;27;20047;-50
2022/03/31 04:10:40;;;;;;;2.50;1.17;;;23.70;73.80;;;;;;4185155;27;20031;-47
2022/03/31 04:13:02;;;;;;;3.45;1.52;;;23.80;73.80;;;;;;4176798;27;20108;-47
2022/03/31 04:15:28;;;;;;;2.55;1.10;;;23.80;73.90;;;;;;4173730;27;20035;-51
2022/03/31 04:17:50;;;;;;;2.00;1.13;;;23.80;73.80;;;;;;4187625;27;20039;-45
2022/03/31 04:20:14;;;;;;;2.25;1.08;;;23.70;73.80;;;;;;4174529;28;20044;-47
2022/03/31 04:22:37;;;;;;;3.50;1.73;;;23.70;73.90;;;;;;4154641;27;20114;-49
2022/03/31 04:25:00;;;;;;;4.40;1.33;;;23.80;73.90;;;;;;4180598;28;20146;-49
2022/03/31 04:27:23;;;;;;;5.10;1.95;;;23.70;73.90;;;;;;4172617;27;20085;-47
2022/03/31 04:29:45;;;;;;;3.38;1.10;;;23.70;73.90;;;;;;4172182;27;20130;-46
2022/03/31 04:32:08;;;;;;;2.85;1.20;;;23.80;73.90;;;;;;4185971;27;20070;-50
2022/03/31 04:34:31;;;;;;;3.07;1.10;;;23.80;73.80;;;;;;4173284;27;20671;-47
2022/03/31 04:36:53;;;;;;;4.18;1.30;;;23.80;73.70;;;;;;4173415;27;20048;-47
2022/03/31 04:39:16;;;;;;;3.30;1.30;;;23.80;73.60;;;;;;4182609;27;20084;-50
2022/03/31 04:41:40;;;;;;;2.58;1.42;;;23.90;73.70;;;;;;4170623;28;20054;-54
2022/03/31 04:44:02;;;;;;;2.42;1.10;;;24.00;73.50;;;;;;4170768;27;20039;-51
2022/03/31 04:46:25;;;;;;;7.68;1.27;;;24.00;73.30;;;;;;4181488;27;20039;-48
2022/03/31 04:48:47;;;;;;;4.93;1.55;;;24.10;73.30;;;;;;4176742;27;20123;-54
2022/03/31 04:51:10;;;;;;;4.50;1.30;;;24.10;73.10;;;;;;4170298;27;20040;-48
2022/03/31 04:53:32;;;;;;;3.50;1.00;;;24.20;73.00;;;;;;4177862;27;20922;-51
2022/03/31 04:55:55;;;;;;;3.05;1.25;;;24.20;72.90;;;;;;4182533;27;20039;-51
2022/03/31 04:58:17;;;;;;;3.80;1.60;;;24.20;72.70;;;;;;4170273;27;20107;-49
2022/03/31 05:00:40;;;;;;;7.88;1.92;;;24.20;72.70;;;;;;4174317;27;20527;-52
2022/03/31 05:03:03;;;;;;;6.82;2.13;;;24.20;73.10;;;;;;4174554;27;20023;-48
2022/03/31 05:05:26;;;;;;;3.55;1.67;;;24.20;72.70;;;;;;4174161;27;21087;-48
2022/03/31 05:07:49;;;;;;;4.43;1.52;;;24.20;72.50;;;;;;4180063;27;20166;-46
2022/03/31 05:10:12;;;;;;;5.80;1.63;;;24.20;72.50;;;;;;4164521;27;20187;-53
2022/03/31 05:12:35;;;;;;;4.50;1.20;;;24.20;72.40;;;;;;4174119;27;20477;-50
2022/03/31 05:14:57;;;;;;;4.40;1.45;;;24.30;72.50;;;;;;4182663;27;20043;-55
2022/03/31 05:17:20;;;;;;;2.58;1.35;;;24.30;72.50;;;;;;4186690;27;20043;-52
2022/03/31 05:19:43;;;;;;;4.57;1.23;;;24.40;72.40;;;;;;4187939;27;20126;-53
2022/03/31 05:22:06;;;;;;;3.55;1.35;;;24.40;72.20;;;;;;4177439;27;20055;-50
2022/03/31 05:24:28;;;;;;;2.78;0.93;;;24.40;72.60;;;;;;4192702;27;20073;-50
2022/03/31 05:26:54;;;;;;;6.00;1.27;;;24.40;72.10;;;;;;4163037;28;20040;-53
2022/03/31 05:29:18;;;;;;;3.88;1.25;;;24.40;72.10;;;;;;4177883;27;20063;-49
2022/03/31 05:31:41;;;;;;;4.15;1.55;;;24.40;72.00;;;;;;4188472;27;20667;-47
2022/03/31 05:34:03;;;;;;;2.90;1.10;;;24.30;72.00;;;;;;4177754;27;20479;-49
2022/03/31 05:36:26;;;;;;;6.65;1.48;;;24.30;72.00;;;;;;4163403;27;20048;-51
2022/03/31 05:38:48;;;;;;;3.92;1.27;;;24.30;71.90;;;;;;4186796;27;20031;-49
2022/03/31 05:41:11;;;;;;;5.22;1.80;;;24.30;72.00;;;;;;4179739;27;20050;-53
2022/03/31 05:43:33;;;;;;;5.75;1.63;;;24.30;72.10;;;;;;4180035;27;20051;-48
2022/03/31 05:45:56;;;;;;;4.20;1.73;;;24.30;72.00;;;;;;4187245;27;21127;-49
2022/03/31 05:48:18;;;;;;;3.63;1.10;;;24.30;72.00;;;;;;4175723;27;20065;-53
2022/03/31 05:50:41;;;;;;;3.95;1.13;;;24.20;71.80;;;;;;4179062;27;20134;-53
2022/03/31 05:53:03;;;;;;;14.18;1.83;;;24.20;71.80;;;;;;4182057;27;20040;-53
2022/03/31 05:55:26;;;;;;;12.82;2.13;;;24.20;71.80;;;;;;4172259;27;20039;-47
2022/03/31 05:57:49;;;;;;;4.97;1.20;;;24.20;71.80;;;;;;4173265;27;20039;-51
2022/03/31 06:00:15;;;;;;;3.90;1.17;;;24.20;71.80;;;;;;4181279;27;20734;-53
2022/03/31 06:02:39;;;;;;;3.88;1.33;;;24.20;71.80;;;;;;4175812;27;20059;-50
2022/03/31 06:05:01;;;;;;;4.25;1.13;;;24.20;71.80;;;;;;4158887;28;20117;-53
2022/03/31 06:07:24;;;;;;;8.45;1.13;;;24.20;71.70;;;;;;4179758;27;20048;-49
2022/03/31 06:09:46;;;;;;;5.15;1.42;;;24.20;71.70;;;;;;4174862;27;20042;-53
2022/03/31 06:12:10;;;;;;;6.65;1.25;;;24.20;71.60;;;;;;4172980;27;20047;-48
2022/03/31 06:14:32;;;;;;;11.82;1.17;;;24.20;71.70;;;;;;4179714;27;20050;-51
2022/03/31 06:16:55;;;;;;;3.55;1.00;;;24.10;71.80;;;;;;4175900;27;20420;-50
2022/03/31 06:19:17;;;;;;;3.50;1.00;;;24.10;71.80;;;;;;4178204;27;20043;-54
2022/03/31 06:21:40;;;;;;;3.00;1.17;;;24.10;71.80;;;;;;4183807;27;20173;-51
2022/03/31 06:24:03;;;;;;;4.38;1.38;;;24.10;71.60;;;;;;4177947;28;20032;-49
2022/03/31 06:26:26;;;;;;;4.18;1.10;;;24.10;71.50;;;;;;4178445;27;21866;-50
2022/03/31 06:28:49;;;;;;;3.95;1.20;;;24.10;71.50;;;;;;4181305;27;20043;-51
2022/03/31 06:31:11;;;;;;;3.42;1.00;;;24.10;71.40;;;;;;4156722;27;20112;-50
2022/03/31 06:33:34;;;;;;;4.57;1.25;;;24.10;71.40;;;;;;4174109;27;20106;-47
2022/03/31 06:35:57;;;;;;;4.45;1.58;;;24.00;71.20;;;;;;4179845;28;20138;-52
2022/03/31 06:38:20;;;;;;;3.80;1.40;;;24.00;71.20;;;;;;4179465;28;20058;-49
2022/03/31 06:41:06;;;;;;;4.10;1.23;;;24.00;71.10;;;;;;4174712;28;20340;-47
2022/03/31 06:43:24;;;;;;;4.50;1.50;;;24.00;71.10;;;;;;4172710;28;20164;-54
2022/03/31 06:45:47;;;;;;;6.07;1.35;;;24.00;71.00;;;;;;4181661;28;20076;-50
2022/03/31 06:48:09;;;;;;;3.65;1.30;;;24.00;71.00;;;;;;4174551;28;20051;-50
2022/03/31 06:50:34;;;;;;;3.97;1.38;;;24.00;71.00;;;;;;4173476;28;20082;-52
2022/03/31 06:52:58;;;;;;;2.53;1.20;;;24.00;71.10;;;;;;4181774;28;20035;-51
2022/03/31 06:55:21;;;;;;;21.65;1.63;;;24.00;70.90;;;;;;4154550;28;20056;-53
2022/03/31 06:57:43;;;;;;;3.72;1.30;;;23.90;70.80;;;;;;4172027;28;20478;-48
2022/03/31 07:00:07;;;;;;;5.03;1.02;;;23.90;71.10;;;;;;4182860;28;20113;-55
2022/03/31 07:02:29;;;;;;;3.80;1.10;;;23.90;71.20;;;;;;4174214;28;20023;-49
2022/03/31 07:04:51;;;;;;;3.65;1.48;;;23.90;70.80;;;;;;4176806;28;20080;-49
2022/03/31 07:07:15;;;;;;;6.88;1.48;;;23.90;70.70;;;;;;4179667;28;20483;-51
2022/03/31 07:09:37;;;;;;;4.28;1.40;;;23.80;70.30;;;;;;4176594;28;20039;-51
2022/03/31 07:12:00;;;;;;;4.78;1.58;;;23.80;70.70;;;;;;4178968;27;21009;-49
2022/03/31 07:14:22;;;;;;;4.63;1.65;;;23.80;70.70;;;;;;4190181;27;20034;-52
2022/03/31 07:16:46;;;;;;;4.20;1.67;;;23.80;70.70;;;;;;4176801;27;20142;-54
2022/03/31 07:19:09;;;;;;;5.25;1.90;;;23.80;70.70;;;;;;4179586;27;20056;-49
2022/03/31 07:21:31;;;;;;;4.22;1.40;;;23.80;70.60;;;;;;4191480;27;20625;-54
2022/03/31 07:23:54;;;;;;;4.93;1.55;;;23.80;70.80;;;;;;4175588;27;20040;-51
2022/03/31 07:26:16;;;;;;;4.22;1.95;;;23.80;70.70;;;;;;4158825;27;20036;-52
2022/03/31 07:28:39;;;;;;;5.70;1.33;;;23.70;70.50;;;;;;4180656;27;20063;-53
2022/03/31 07:31:02;;;;;;;6.47;1.85;;;23.70;70.60;;;;;;4174460;27;20040;-49
2022/03/31 07:33:24;;;;;;;5.72;1.60;;;23.70;70.50;;;;;;4179548;27;20733;-51
2022/03/31 07:35:50;;;;;;;4.55;1.40;;;23.70;70.40;;;;;;4181970;27;20047;-46
2022/03/31 07:38:13;;;;;;;5.90;1.90;;;23.70;70.30;;;;;;4178970;27;20059;-48
2022/03/31 07:40:38;;;;;;;6.32;1.85;;;23.70;70.40;;;;;;4179086;27;20039;-47
2022/03/31 07:43:02;;;;;;;4.70;1.60;;;23.60;70.00;;;;;;4173718;27;20786;-52
2022/03/31 07:45:25;;;;;;;5.03;1.75;;;23.60;69.90;;;;;;4179030;27;20031;-50
2022/03/31 07:47:48;;;;;;;4.43;2.00;;;23.60;70.70;;;;;;4183345;27;20531;-46
2022/03/31 07:50:14;;;;;;;4.95;2.20;;;23.60;70.10;;;;;;4178790;27;20061;-56
2022/03/31 07:52:40;;;;;;;8.90;2.58;;;23.60;69.80;;;;;;4173082;27;20073;-51
2022/03/31 07:55:04;;;;;;;7.55;2.53;;;23.60;69.80;;;;;;4186587;27;20520;-50
2022/03/31 07:57:26;;;;;;;5.60;2.47;;;23.60;69.90;;;;;;4178118;27;20066;-47
2022/03/31 07:59:49;;;;;;;8.85;2.67;;;23.60;70.00;;;;;;4179042;27;20708;-48
2022/03/31 08:02:12;;;;;;;13.43;2.88;;;23.60;69.90;;;;;;4182389;27;20040;-52
2022/03/31 08:04:34;;;;;;;9.48;2.92;;;23.60;70.10;;;;;;4177039;27;20032;-49
2022/03/31 08:06:57;;;;;;;12.15;2.90;;;23.60;70.20;;;;;;4180308;27;20047;-49
2022/03/31 08:09:22;;;;;;;7.57;2.58;;;23.50;70.20;;;;;;4182561;27;20044;-53
2022/03/31 08:11:45;;;;;;;8.82;2.75;;;23.50;70.30;;;;;;4171907;27;20036;-49
2022/03/31 08:14:07;;;;;;;7.07;2.50;;;23.50;70.40;;;;;;4178759;27;20158;-47
2022/03/31 08:16:31;;;;;;;9.90;2.10;;;23.50;70.40;;;;;;4176698;27;20039;-53
2022/03/31 08:18:54;;;;;;;;;;;23.50;70.30;;;;;;4174094;27;20035;-49
2022/03/31 08:21:17;;;;;;;20.73;2.33;;;23.50;70.40;;;;;;4180662;27;19978;-50
2022/03/31 08:23:39;;;;;;;8.95;2.60;;;23.50;70.30;;;;;;4175799;28;20135;-48
2022/03/31 08:26:02;;;;;;;6.50;2.05;;;23.50;70.50;;;;;;4173717;27;20903;-46
2022/03/31 08:28:25;;;;;;;5.55;1.70;;;23.50;70.40;;;;;;4178131;27;21296;-49
2022/03/31 08:30:47;;;;;;;6.10;1.85;;;23.50;70.20;;;;;;4179979;27;20096;-52
2022/03/31 08:33:11;;;;;;;7.35;1.90;;;23.50;70.40;;;;;;4172068;27;20051;-49
2022/03/31 08:35:33;;;;;;;3.08;1.27;;;23.50;70.40;;;;;;4182428;27;20185;-45
2022/03/31 08:37:56;;;;;;;5.47;1.83;;;23.40;70.20;;;;;;4174977;27;20888;-57
2022/03/31 08:40:18;;;;;;;6.20;1.83;;;23.40;70.20;;;;;;4172571;27;20073;-51
2022/03/31 08:42:42;;;;;;;4.03;1.40;;;23.40;70.40;;;;;;4178107;27;20597;-51
2022/03/31 08:45:07;;;;;;;4.28;1.55;;;23.40;70.40;;;;;;4180925;27;20820;-53
2022/03/31 08:47:30;;;;;;;5.38;1.40;;;23.40;70.90;;;;;;4175788;27;20046;-52
2022/03/31 08:49:54;;;;;;;3.65;1.42;;;23.40;70.10;;;;;;4179797;27;21560;-46
2022/03/31 08:52:17;;;;;;;7.30;1.63;;;23.40;70.20;;;;;;4176032;27;20738;-51
2022/03/31 08:54:41;;;;;;;3.90;1.40;;;23.30;70.10;;;;;;4176005;27;20116;-47
2022/03/31 08:57:04;;;;;;;8.43;1.70;;;23.30;70.00;;;;;;4184789;27;20035;-53
2022/03/31 08:59:26;;;;;;;4.90;1.20;;;23.30;69.90;;;;;;4175325;27;20039;-52
2022/03/31 09:01:49;;;;;;;2.80;1.10;;;23.30;69.90;;;;;;4160030;27;20039;-46
2022/03/31 09:04:24;;;;;;;3.97;1.35;;;23.30;70.00;;;;;;4176475;27;20757;-54
2022/03/31 09:06:49;;;;;;;2.60;0.88;;;23.30;70.30;;;;;;4174061;27;20122;-48
2022/03/31 09:09:14;;;;;;;3.90;1.52;;;23.30;69.60;;;;;;4179105;27;20035;-51
2022/03/31 09:11:41;;;;;;;2.88;1.00;;;23.30;69.80;;;;;;4170804;27;20238;-47
2022/03/31 09:14:06;;;;;;;12.02;1.98;;;23.30;69.40;;;;;;4178822;27;20520;-48
2022/03/31 09:16:35;;;;;;;10.18;2.00;;;23.30;69.60;;;;;;4171351;27;20039;-50
2022/03/31 09:19:15;;;;;;;17.05;1.70;;;23.30;69.50;;;;;;4176706;27;20077;-46
2022/03/31 09:21:57;;;;;;;10.75;1.83;;;23.30;69.20;;;;;;4167526;27;20502;-47
2022/03/31 09:24:22;;;;;;;6.63;1.52;;;23.20;69.10;;;;;;4173514;27;20097;-51
2022/03/31 09:26:49;;;;;;;5.97;1.50;;;23.20;69.30;;;;;;4176785;28;20035;-46
2022/03/31 09:29:13;;;;;;;4.05;1.23;;;23.20;69.40;;;;;;4170924;27;20519;-47
2022/03/31 09:31:35;;;;;;;4.75;1.13;;;23.20;69.60;;;;;;4176325;27;20031;-46
2022/03/31 09:33:59;;;;;;;4.55;1.20;;;23.20;69.60;;;;;;4176213;27;20049;-50
2022/03/31 09:36:23;;;;;;;4.53;0.88;;;23.20;69.70;;;;;;4181086;27;20074;-47
2022/03/31 09:39:03;;;;;;;3.30;1.25;;;23.20;69.70;;;;;;4183722;28;20111;-50
2022/03/31 09:41:29;;;;;;;4.22;1.15;;;23.20;69.70;;;;;;4180666;28;20051;-47
2022/03/31 09:43:55;;;;;;;3.25;1.05;;;23.20;69.70;;;;;;4177764;27;20066;-46
2022/03/31 09:46:26;;;;;;;2.85;1.33;;;23.20;69.80;;;;;;4174484;28;20043;-48
2022/03/31 09:48:50;;;;;;;4.05;1.27;;;23.20;69.60;;;;;;4176870;28;20051;-49
2022/03/31 09:51:12;;;;;;;;;;;23.20;69.50;;;;;;4176100;28;20058;-47
2022/03/31 09:53:35;;;;;;;3.72;1.20;;;23.20;70.40;;;;;;4183394;28;19911;-53
2022/03/31 09:55:58;;;;;;;2.75;0.98;;;23.10;69.70;;;;;;4176940;28;20470;-54
2022/03/31 09:58:21;;;;;;;1.42;0.80;;;23.10;69.60;;;;;;4173247;28;20453;-44
2022/03/31 10:00:44;;;;;;;2.03;0.90;;;23.10;69.40;;;;;;4181007;28;20040;-53
2022/03/31 10:03:08;;;;;;;2.03;0.93;;;23.10;69.70;;;;;;4177105;28;20063;-50
2022/03/31 10:05:32;;;;;;;2.60;1.10;;;23.10;69.60;;;;;;4173693;28;20035;-47
2022/03/31 10:07:56;;;;;;;3.15;0.90;;;23.10;69.60;;;;;;4181575;28;20082;-51
2022/03/31 10:10:18;;;;;;;3.15;0.98;;;23.10;70.00;;;;;;4173196;28;20038;-45
2022/03/31 10:12:58;;;;;;;2.20;0.77;;;23.10;69.70;;;;;;4172382;28;20081;-48
2022/03/31 10:15:34;;;;;;;3.38;1.27;;;23.10;69.50;;;;;;4170922;28;20123;-50
2022/03/31 10:17:57;;;;;;;3.70;1.00;;;23.00;69.50;;;;;;4167349;28;20089;-53
2022/03/31 10:20:21;;;;;;;;;;;23.10;69.50;;;;;;4172241;28;20036;-52
2022/03/31 10:25:42;;;;;;;2.83;1.15;;;23.00;69.50;;;;;;4169925;28;20043;-48
2022/03/31 10:28:21;;;;;;;2.45;1.00;;;23.00;68.90;;;;;;4168116;27;20872;-45
2022/03/31 10:30:58;;;;;;;3.00;0.95;;;23.10;69.00;;;;;;4166277;28;20199;-45
2022/03/31 10:33:38;;;;;;;4.53;1.10;;;23.00;68.60;;;;;;4171203;28;20847;-49
2022/03/31 10:36:09;;;;;;;2.45;0.70;;;23.00;68.90;;;;;;4173391;28;20536;-41
2022/03/31 10:38:33;;;;;;;2.72;0.93;;;23.00;68.80;;;;;;4138788;28;20590;-46
2022/03/31 10:41:11;;;;;;;4.07;0.85;;;23.00;68.60;;;;;;4161112;28;20500;-46
2022/03/31 10:43:33;;;;;;;6.20;1.15;;;23.00;68.70;;;;;;4152522;28;20077;-44
2022/03/31 10:46:00;;;;;;;2.65;1.10;;;23.00;69.00;;;;;;4155709;28;20527;-47
2022/03/31 10:48:24;;;;;;;3.05;1.00;;;22.90;68.80;;;;;;4154874;28;20059;-53
2022/03/31 10:51:00;;;;;;;6.47;0.95;;;22.90;68.80;;;;;;4163769;28;21028;-51
2022/03/31 10:53:30;;;;;;;2.58;0.82;;;22.90;68.90;;;;;;4154449;28;20700;-52
2022/03/31 10:55:55;;;;;;;2.35;1.00;;;22.90;69.10;;;;;;4148212;28;20063;-45
2022/03/31 10:58:27;;;;;;;2.75;1.10;;;22.90;68.90;;;;;;4154862;28;20468;-50
2022/03/31 11:00:50;;;;;;;4.75;0.90;;;22.90;69.10;;;;;;4152872;28;20040;-48
2022/03/31 11:03:17;;;;;;;6.70;1.30;;;22.90;69.00;;;;;;4158636;28;20078;-47
2022/03/31 11:05:40;;;;;;;3.47;0.95;;;22.90;69.00;;;;;;4165496;28;20119;-53
2022/03/31 11:08:04;;;;;;;2.78;0.93;;;22.90;69.10;;;;;;4157993;28;20251;-48
2022/03/31 11:10:27;;;;;;;4.10;1.13;;;22.90;68.90;;;;;;4160540;28;20043;-49
2022/03/31 11:12:50;;;;;;;2.78;0.95;;;22.90;69.40;;;;;;4161876;28;20052;-52
2022/03/31 11:15:16;;;;;;;3.85;1.35;;;22.90;69.60;;;;;;4156783;28;20127;-51
2022/03/31 11:17:40;;;;;;;3.67;1.23;;;22.80;69.20;;;;;;4164715;28;20040;-46
2022/03/31 11:20:16;;;;;;;3.28;0.75;;;22.80;69.00;;;;;;4141967;28;20040;-50
2022/03/31 11:22:45;;;;;;;2.70;0.98;;;22.80;69.10;;;;;;4163327;28;20074;-48
2022/03/31 11:25:11;;;;;;;5.35;1.50;;;22.80;69.40;;;;;;4154250;28;20503;-44
2022/03/31 11:27:38;;;;;;;13.68;1.33;;;22.80;69.40;;;;;;4161254;28;20048;-47
2022/03/31 11:30:01;;;;;;;3.25;0.93;;;22.80;69.70;;;;;;4154615;28;20051;-48
2022/03/31 11:32:31;;;;;;;3.33;0.90;;;22.80;69.30;;;;;;4154684;28;20929;-46
2022/03/31 11:34:56;;;;;;;3.40;0.82;;;22.80;69.50;;;;;;4156341;28;20048;-55
2022/03/31 11:37:18;;;;;;;6.95;1.63;;;22.70;69.60;;;;;;4163763;28;20124;-48
2022/03/31 11:39:46;;;;;;;2.35;1.00;;;22.70;69.50;;;;;;4179190;28;20040;-45
2022/03/31 11:42:11;;;;;;;6.65;1.08;;;22.70;69.30;;;;;;4171096;28;20598;-53
2022/03/31 11:44:41;;;;;;;2.72;1.20;;;22.70;70.10;;;;;;4178205;27;20141;-49
2022/03/31 11:47:04;;;;;;;3.90;1.17;;;22.70;69.50;;;;;;4170786;28;20070;-47
2022/03/31 11:49:29;;;;;;;5.75;1.10;;;22.70;69.60;;;;;;4171553;28;21585;-52
2022/03/31 11:51:57;;;;;;;9.10;1.10;;;22.70;69.60;;;;;;4174936;28;20120;-50
2022/03/31 11:54:21;;;;;;;2.35;1.00;;;22.60;69.50;;;;;;4171111;28;20044;-49
2022/03/31 11:56:44;;;;;;;2.47;0.98;;;22.60;70.10;;;;;;4180742;28;20043;-48
2022/03/31 11:59:06;;;;;;;3.33;1.27;;;22.60;70.00;;;;;;4171616;28;20036;-47
2022/03/31 12:01:47;;;;;;;3.83;1.10;;;22.60;70.20;;;;;;4170349;28;20047;-52
2022/03/31 12:04:24;;;;;;;1.88;0.60;;;22.60;69.70;;;;;;4168432;28;20043;-50
2022/03/31 12:06:49;;;;;;;4.60;1.30;;;22.60;70.50;;;;;;4172472;28;20032;-52
2022/03/31 12:09:11;;;;;;;5.43;1.73;;;22.60;70.00;;;;;;4171934;28;22465;-50
2022/03/31 12:11:34;;;;;;;2.03;0.82;;;22.50;69.30;;;;;;4183531;28;20043;-51
2022/03/31 12:14:00;;;;;;;8.90;1.45;;;22.50;70.50;;;;;;4174550;28;20050;-51
2022/03/31 12:16:24;;;;;;;5.43;1.30;;;22.50;70.40;;;;;;4171817;28;20158;-51
2022/03/31 12:18:57;;;;;;;5.40;1.33;;;22.50;69.90;;;;;;4169647;28;20207;-55
2022/03/31 12:21:21;;;;;;;3.45;1.00;;;22.50;70.00;;;;;;4174302;28;21573;-48
2022/03/31 12:23:45;;;;;;;4.88;0.90;;;22.50;70.30;;;;;;4170244;28;20122;-54
2022/03/31 12:26:18;;;;;;;6.82;0.95;;;22.50;70.80;;;;;;4166603;28;20039;-52
2022/03/31 12:28:45;;;;;;;3.15;0.82;;;22.40;70.40;;;;;;4172489;28;20055;-55
2022/03/31 12:31:07;;;;;;;3.00;1.00;;;22.40;70.30;;;;;;4170771;28;20050;-51
2022/03/31 12:33:34;;;;;;;1.77;0.68;;;22.40;70.20;;;;;;4177044;28;20043;-50
2022/03/31 12:36:04;;;;;;;2.97;0.70;;;22.40;70.40;;;;;;4172003;28;20070;-48
2022/03/31 12:38:46;;;;;;;5.35;1.20;;;22.40;70.70;;;;;;4165669;28;20062;-50